Union, Texas
Current Conditions -  °F | °C
As of 8:15 PM on Sunday 25 Jan 2015 (Local Time) from KSWW Reporting Station
Clear Clear  
Wind Chill: 56°   Ceiling: Unl
Heat Index: 56°   Visibility: 10mi
Dew Point: 26°   Wind: 5mph
Humidity: 32%   Direction: 250°WSW
Pressure: 30.26"   Gusts: NA
Location:  33.0123°N, 100.833°W
Report Text: KSWW 260215Z AUTO 25004KT 10SM CLR 13/M03 A3026 RMK AO2 T01331033
Loading
Personal Weather Stations






























Interactive Weather Map New forecast layout! Learn more

10-Day Weather Forecast

Advertisements
Track Severe Weather on mobile